Aurora State Airport Aurora US
ICAO: KUAO
IATA: UAO
Category: Medium
Scheduled Services: No

Elevation: 200 ft
TransAlt. 18000 ft.

Airport Communications:
PORTLAND APP/DEP:126
ASOS:118.525
PORTLAND CLNC DEL:119.95
CTAF/UNICOM:122.7

KUAO Zoom In..

If you have problems with the map follow the link
https://www.worldairports.se/pages/airport.php?
ICAO=KUAO

Runways:

(A) RW 17 length 5004 ft width 100 ft
LOC 111.15 / hdg 169

(B) RW 35 length 5004 ft width 100 ft
LOC 111.15 / hdg 349

Location; KUAO
Day. 23 / Time. 07.53 Zulu
* Altimeter: 29.89
* Temperature: 08° c. 46.4°f.
* Wind from: 000° Speed 00 kn.
Dewpoint: 07° c.
Visibility: 4 Statute Miles.
Clouds: Clear (automated report).
Conditions: Mist.

KUAO 230753Z AUTO 00000KT 4SM BR CLR 08/07 A2989 RMK AO2 SLP123 T00780072 402110022


Wind - Calm.

 
 
jpsmedia.com for Web Design worldairports.se 2018   terms of use